sensor_id;sensor_type;location;lat;lon;timestamp;P1;durP1;ratioP1;P2;durP2;ratioP2
14472;SDS011;7322;50.872;4.386;2023-08-08T00:00:09;1.52;;;1.42;;
14472;SDS011;7322;50.872;4.386;2023-08-08T00:02:37;1.95;;;1.50;;
14472;SDS011;7322;50.872;4.386;2023-08-08T00:05:05;2.17;;;1.50;;
14472;SDS011;7322;50.872;4.386;2023-08-08T00:07:33;1.98;;;1.42;;
14472;SDS011;7322;50.872;4.386;2023-08-08T00:10:00;1.83;;;1.40;;
14472;SDS011;7322;50.872;4.386;2023-08-08T00:12:28;4.47;;;1.50;;
14472;SDS011;7322;50.872;4.386;2023-08-08T00:14:55;1.90;;;1.35;;
14472;SDS011;7322;50.872;4.386;2023-08-08T00:17:22;1.83;;;1.40;;
14472;SDS011;7322;50.872;4.386;2023-08-08T00:19:49;1.23;;;1.13;;
14472;SDS011;7322;50.872;4.386;2023-08-08T00:22:16;1.40;;;1.15;;
14472;SDS011;7322;50.872;4.386;2023-08-08T00:24:43;2.65;;;1.40;;
14472;SDS011;7322;50.872;4.386;2023-08-08T00:27:11;1.83;;;1.30;;
14472;SDS011;7322;50.872;4.386;2023-08-08T00:29:40;2.20;;;1.40;;
14472;SDS011;7322;50.872;4.386;2023-08-08T00:32:07;1.98;;;1.30;;
14472;SDS011;7322;50.872;4.386;2023-08-08T00:34:33;2.28;;;1.30;;
14472;SDS011;7322;50.872;4.386;2023-08-08T00:37:00;2.45;;;1.48;;
14472;SDS011;7322;50.872;4.386;2023-08-08T00:39:27;2.08;;;1.50;;
14472;SDS011;7322;50.872;4.386;2023-08-08T00:41:54;2.97;;;1.50;;
14472;SDS011;7322;50.872;4.386;2023-08-08T00:44:21;2.28;;;1.35;;
14472;SDS011;7322;50.872;4.386;2023-08-08T00:46:50;1.70;;;1.50;;
14472;SDS011;7322;50.872;4.386;2023-08-08T00:49:17;2.80;;;1.40;;
14472;SDS011;7322;50.872;4.386;2023-08-08T00:51:44;1.45;;;1.17;;
14472;SDS011;7322;50.872;4.386;2023-08-08T00:54:11;1.75;;;1.10;;
14472;SDS011;7322;50.872;4.386;2023-08-08T00:56:39;1.95;;;1.27;;
14472;SDS011;7322;50.872;4.386;2023-08-08T00:59:06;2.42;;;1.27;;
14472;SDS011;7322;50.872;4.386;2023-08-08T01:01:34;1.90;;;1.30;;
14472;SDS011;7322;50.872;4.386;2023-08-08T01:04:03;2.08;;;1.38;;
14472;SDS011;7322;50.872;4.386;2023-08-08T01:06:34;1.88;;;1.23;;
14472;SDS011;7322;50.872;4.386;2023-08-08T01:09:09;1.40;;;1.30;;
14472;SDS011;7322;50.872;4.386;2023-08-08T01:11:44;2.47;;;1.40;;
14472;SDS011;7322;50.872;4.386;2023-08-08T01:14:13;1.48;;;1.23;;
14472;SDS011;7322;50.872;4.386;2023-08-08T01:16:43;1.85;;;1.20;;
14472;SDS011;7322;50.872;4.386;2023-08-08T01:19:15;2.95;;;1.27;;
14472;SDS011;7322;50.872;4.386;2023-08-08T01:21:49;2.78;;;1.30;;
14472;SDS011;7322;50.872;4.386;2023-08-08T01:24:21;1.80;;;1.40;;
14472;SDS011;7322;50.872;4.386;2023-08-08T01:26:50;2.13;;;1.27;;
14472;SDS011;7322;50.872;4.386;2023-08-08T01:29:18;1.98;;;1.30;;
14472;SDS011;7322;50.872;4.386;2023-08-08T01:31:45;1.88;;;1.20;;
14472;SDS011;7322;50.872;4.386;2023-08-08T01:34:12;1.52;;;1.27;;
14472;SDS011;7322;50.872;4.386;2023-08-08T01:36:42;1.83;;;1.17;;
14472;SDS011;7322;50.872;4.386;2023-08-08T01:39:16;1.70;;;1.40;;
14472;SDS011;7322;50.872;4.386;2023-08-08T01:41:48;1.88;;;1.30;;
14472;SDS011;7322;50.872;4.386;2023-08-08T01:44:16;3.05;;;1.60;;
14472;SDS011;7322;50.872;4.386;2023-08-08T01:46:43;1.52;;;1.13;;
14472;SDS011;7322;50.872;4.386;2023-08-08T01:49:11;3.88;;;1.27;;
14472;SDS011;7322;50.872;4.386;2023-08-08T01:51:38;2.63;;;1.45;;
14472;SDS011;7322;50.872;4.386;2023-08-08T01:54:05;1.90;;;1.10;;
14472;SDS011;7322;50.872;4.386;2023-08-08T01:56:32;1.83;;;1.35;;
14472;SDS011;7322;50.872;4.386;2023-08-08T01:59:00;2.07;;;1.30;;
14472;SDS011;7322;50.872;4.386;2023-08-08T02:01:27;1.52;;;1.20;;
14472;SDS011;7322;50.872;4.386;2023-08-08T02:03:54;1.85;;;1.45;;
14472;SDS011;7322;50.872;4.386;2023-08-08T02:06:21;2.80;;;1.40;;
14472;SDS011;7322;50.872;4.386;2023-08-08T02:08:48;1.70;;;1.42;;
14472;SDS011;7322;50.872;4.386;2023-08-08T02:11:15;1.98;;;1.42;;
14472;SDS011;7322;50.872;4.386;2023-08-08T02:13:42;1.20;;;1.10;;
14472;SDS011;7322;50.872;4.386;2023-08-08T02:16:10;2.10;;;1.10;;
14472;SDS011;7322;50.872;4.386;2023-08-08T02:18:37;2.90;;;1.20;;
14472;SDS011;7322;50.872;4.386;2023-08-08T02:21:06;1.92;;;1.10;;
14472;SDS011;7322;50.872;4.386;2023-08-08T02:23:33;1.73;;;1.10;;
14472;SDS011;7322;50.872;4.386;2023-08-08T02:26:00;1.98;;;1.30;;
14472;SDS011;7322;50.872;4.386;2023-08-08T02:28:28;1.38;;;1.10;;
14472;SDS011;7322;50.872;4.386;2023-08-08T02:30:55;1.88;;;1.27;;
14472;SDS011;7322;50.872;4.386;2023-08-08T02:33:23;1.98;;;1.20;;
14472;SDS011;7322;50.872;4.386;2023-08-08T02:35:50;1.67;;;1.30;;
14472;SDS011;7322;50.872;4.386;2023-08-08T02:38:17;2.20;;;1.10;;
14472;SDS011;7322;50.872;4.386;2023-08-08T02:40:44;1.65;;;1.30;;
14472;SDS011;7322;50.872;4.386;2023-08-08T02:43:11;2.50;;;1.38;;
14472;SDS011;7322;50.872;4.386;2023-08-08T02:45:38;2.65;;;1.25;;
14472;SDS011;7322;50.872;4.386;2023-08-08T02:48:05;1.35;;;1.13;;
14472;SDS011;7322;50.872;4.386;2023-08-08T02:50:33;2.80;;;1.50;;
14472;SDS011;7322;50.872;4.386;2023-08-08T02:53:00;3.42;;;1.50;;
14472;SDS011;7322;50.872;4.386;2023-08-08T02:55:27;1.95;;;1.15;;
14472;SDS011;7322;50.872;4.386;2023-08-08T02:57:54;1.60;;;1.30;;
14472;SDS011;7322;50.872;4.386;2023-08-08T03:00:22;1.73;;;1.23;;
14472;SDS011;7322;50.872;4.386;2023-08-08T03:02:49;2.13;;;1.30;;
14472;SDS011;7322;50.872;4.386;2023-08-08T03:05:16;2.75;;;1.30;;
14472;SDS011;7322;50.872;4.386;2023-08-08T03:07:45;1.83;;;1.05;;
14472;SDS011;7322;50.872;4.386;2023-08-08T03:10:12;2.22;;;1.13;;
14472;SDS011;7322;50.872;4.386;2023-08-08T03:12:38;1.83;;;1.20;;
14472;SDS011;7322;50.872;4.386;2023-08-08T03:15:07;2.97;;;1.40;;
14472;SDS011;7322;50.872;4.386;2023-08-08T03:17:35;1.73;;;1.25;;
14472;SDS011;7322;50.872;4.386;2023-08-08T03:20:02;2.28;;;1.20;;
14472;SDS011;7322;50.872;4.386;2023-08-08T03:22:31;2.42;;;1.17;;
14472;SDS011;7322;50.872;4.386;2023-08-08T03:24:59;1.70;;;1.10;;
14472;SDS011;7322;50.872;4.386;2023-08-08T03:27:27;2.47;;;1.35;;
14472;SDS011;7322;50.872;4.386;2023-08-08T03:29:54;1.60;;;1.13;;
14472;SDS011;7322;50.872;4.386;2023-08-08T03:32:21;3.85;;;1.35;;
14472;SDS011;7322;50.872;4.386;2023-08-08T03:34:48;2.35;;;1.25;;
14472;SDS011;7322;50.872;4.386;2023-08-08T03:37:15;3.30;;;1.30;;
14472;SDS011;7322;50.872;4.386;2023-08-08T03:39:42;2.95;;;1.33;;
14472;SDS011;7322;50.872;4.386;2023-08-08T03:42:10;3.25;;;1.20;;
14472;SDS011;7322;50.872;4.386;2023-08-08T03:44:37;1.90;;;1.10;;
14472;SDS011;7322;50.872;4.386;2023-08-08T03:47:04;2.38;;;1.30;;
14472;SDS011;7322;50.872;4.386;2023-08-08T03:49:32;2.65;;;1.33;;
14472;SDS011;7322;50.872;4.386;2023-08-08T03:51:59;2.05;;;1.35;;
14472;SDS011;7322;50.872;4.386;2023-08-08T03:54:26;2.17;;;1.25;;
14472;SDS011;7322;50.872;4.386;2023-08-08T03:56:53;3.47;;;1.30;;
14472;SDS011;7322;50.872;4.386;2023-08-08T03:59:21;1.70;;;1.17;;
14472;SDS011;7322;50.872;4.386;2023-08-08T04:01:48;1.58;;;1.00;;
14472;SDS011;7322;50.872;4.386;2023-08-08T04:04:15;2.30;;;1.20;;
14472;SDS011;7322;50.872;4.386;2023-08-08T04:06:42;2.42;;;1.17;;
14472;SDS011;7322;50.872;4.386;2023-08-08T04:09:09;1.63;;;1.40;;
14472;SDS011;7322;50.872;4.386;2023-08-08T04:11:36;1.50;;;1.02;;
14472;SDS011;7322;50.872;4.386;2023-08-08T04:14:03;3.08;;;1.20;;
14472;SDS011;7322;50.872;4.386;2023-08-08T04:16:31;2.78;;;1.48;;
14472;SDS011;7322;50.872;4.386;2023-08-08T04:18:58;2.88;;;1.23;;
14472;SDS011;7322;50.872;4.386;2023-08-08T04:21:28;2.05;;;1.27;;
14472;SDS011;7322;50.872;4.386;2023-08-08T04:23:57;2.30;;;1.25;;
14472;SDS011;7322;50.872;4.386;2023-08-08T04:26:24;1.48;;;1.00;;
14472;SDS011;7322;50.872;4.386;2023-08-08T04:28:51;1.55;;;1.20;;
14472;SDS011;7322;50.872;4.386;2023-08-08T04:31:18;1.77;;;1.25;;
14472;SDS011;7322;50.872;4.386;2023-08-08T04:33:46;2.00;;;1.20;;
14472;SDS011;7322;50.872;4.386;2023-08-08T04:36:13;1.42;;;1.02;;
14472;SDS011;7322;50.872;4.386;2023-08-08T04:38:41;2.72;;;1.20;;
14472;SDS011;7322;50.872;4.386;2023-08-08T04:41:07;2.40;;;1.30;;
14472;SDS011;7322;50.872;4.386;2023-08-08T04:43:34;2.90;;;1.10;;
14472;SDS011;7322;50.872;4.386;2023-08-08T04:46:01;2.33;;;1.10;;
14472;SDS011;7322;50.872;4.386;2023-08-08T04:48:28;1.77;;;1.20;;
14472;SDS011;7322;50.872;4.386;2023-08-08T04:50:57;4.03;;;1.42;;
14472;SDS011;7322;50.872;4.386;2023-08-08T04:53:24;1.52;;;1.10;;
14472;SDS011;7322;50.872;4.386;2023-08-08T04:55:50;2.95;;;1.10;;
14472;SDS011;7322;50.872;4.386;2023-08-08T04:58:18;1.67;;;1.23;;
14472;SDS011;7322;50.872;4.386;2023-08-08T05:00:45;2.13;;;1.20;;
14472;SDS011;7322;50.872;4.386;2023-08-08T05:03:12;2.63;;;1.33;;
14472;SDS011;7322;50.872;4.386;2023-08-08T05:05:39;1.20;;;1.10;;
14472;SDS011;7322;50.872;4.386;2023-08-08T05:08:07;1.70;;;1.20;;
14472;SDS011;7322;50.872;4.386;2023-08-08T05:10:34;3.05;;;1.40;;
14472;SDS011;7322;50.872;4.386;2023-08-08T05:13:01;3.20;;;1.50;;
14472;SDS011;7322;50.872;4.386;2023-08-08T05:15:28;2.75;;;1.33;;
14472;SDS011;7322;50.872;4.386;2023-08-08T05:17:55;2.63;;;1.30;;
14472;SDS011;7322;50.872;4.386;2023-08-08T05:20:22;2.70;;;1.20;;
14472;SDS011;7322;50.872;4.386;2023-08-08T05:22:49;1.67;;;1.15;;
14472;SDS011;7322;50.872;4.386;2023-08-08T05:25:18;1.17;;;1.08;;
14472;SDS011;7322;50.872;4.386;2023-08-08T05:27:44;2.73;;;1.10;;
14472;SDS011;7322;50.872;4.386;2023-08-08T05:30:12;2.42;;;1.48;;
14472;SDS011;7322;50.872;4.386;2023-08-08T05:32:39;1.65;;;1.10;;
14472;SDS011;7322;50.872;4.386;2023-08-08T05:35:06;2.78;;;1.20;;
14472;SDS011;7322;50.872;4.386;2023-08-08T05:37:34;3.03;;;1.30;;
14472;SDS011;7322;50.872;4.386;2023-08-08T05:40:01;1.55;;;1.23;;
14472;SDS011;7322;50.872;4.386;2023-08-08T05:42:32;2.63;;;1.33;;
14472;SDS011;7322;50.872;4.386;2023-08-08T05:44:59;2.42;;;1.33;;
14472;SDS011;7322;50.872;4.386;2023-08-08T05:47:26;1.27;;;1.17;;
14472;SDS011;7322;50.872;4.386;2023-08-08T05:49:53;2.08;;;1.10;;
14472;SDS011;7322;50.872;4.386;2023-08-08T05:52:20;2.88;;;1.42;;
14472;SDS011;7322;50.872;4.386;2023-08-08T05:54:47;2.45;;;1.15;;
14472;SDS011;7322;50.872;4.386;2023-08-08T05:57:14;2.35;;;1.40;;
14472;SDS011;7322;50.872;4.386;2023-08-08T05:59:43;2.33;;;1.40;;
14472;SDS011;7322;50.872;4.386;2023-08-08T06:02:10;2.45;;;1.30;;
14472;SDS011;7322;50.872;4.386;2023-08-08T06:04:37;2.65;;;1.40;;
14472;SDS011;7322;50.872;4.386;2023-08-08T06:07:04;2.38;;;1.52;;
14472;SDS011;7322;50.872;4.386;2023-08-08T06:09:31;2.40;;;1.33;;
14472;SDS011;7322;50.872;4.386;2023-08-08T06:11:58;2.57;;;1.20;;
14472;SDS011;7322;50.872;4.386;2023-08-08T06:14:25;1.60;;;1.30;;
14472;SDS011;7322;50.872;4.386;2023-08-08T06:16:54;1.63;;;1.15;;
14472;SDS011;7322;50.872;4.386;2023-08-08T06:19:21;2.75;;;1.48;;
14472;SDS011;7322;50.872;4.386;2023-08-08T06:21:48;2.55;;;1.23;;
14472;SDS011;7322;50.872;4.386;2023-08-08T06:24:15;1.88;;;1.25;;
14472;SDS011;7322;50.872;4.386;2023-08-08T06:26:42;1.85;;;1.25;;
14472;SDS011;7322;50.872;4.386;2023-08-08T06:29:09;2.72;;;1.40;;
14472;SDS011;7322;50.872;4.386;2023-08-08T06:31:37;2.85;;;1.50;;
14472;SDS011;7322;50.872;4.386;2023-08-08T06:34:05;3.72;;;1.50;;
14472;SDS011;7322;50.872;4.386;2023-08-08T06:36:32;1.40;;;1.20;;
14472;SDS011;7322;50.872;4.386;2023-08-08T06:38:59;2.85;;;1.33;;
14472;SDS011;7322;50.872;4.386;2023-08-08T06:41:26;2.15;;;1.55;;
14472;SDS011;7322;50.872;4.386;2023-08-08T06:43:53;2.85;;;1.38;;
14472;SDS011;7322;50.872;4.386;2023-08-08T06:46:20;2.63;;;1.20;;
14472;SDS011;7322;50.872;4.386;2023-08-08T06:48:47;2.60;;;1.58;;
14472;SDS011;7322;50.872;4.386;2023-08-08T06:51:17;2.42;;;1.30;;
14472;SDS011;7322;50.872;4.386;2023-08-08T06:53:44;3.30;;;1.38;;
14472;SDS011;7322;50.872;4.386;2023-08-08T06:56:10;2.67;;;1.30;;
14472;SDS011;7322;50.872;4.386;2023-08-08T06:58:37;3.88;;;1.70;;
14472;SDS011;7322;50.872;4.386;2023-08-08T07:01:04;2.38;;;1.33;;
14472;SDS011;7322;50.872;4.386;2023-08-08T07:03:31;2.90;;;1.40;;
14472;SDS011;7322;50.872;4.386;2023-08-08T07:05:58;3.10;;;1.50;;
14472;SDS011;7322;50.872;4.386;2023-08-08T07:08:27;2.47;;;1.40;;
14472;SDS011;7322;50.872;4.386;2023-08-08T07:10:54;2.67;;;1.40;;
14472;SDS011;7322;50.872;4.386;2023-08-08T07:13:22;2.25;;;1.30;;
14472;SDS011;7322;50.872;4.386;2023-08-08T07:15:49;3.63;;;1.50;;
14472;SDS011;7322;50.872;4.386;2023-08-08T07:18:16;2.95;;;1.73;;
14472;SDS011;7322;50.872;4.386;2023-08-08T07:20:43;3.00;;;1.50;;
14472;SDS011;7322;50.872;4.386;2023-08-08T07:23:10;1.73;;;1.27;;
14472;SDS011;7322;50.872;4.386;2023-08-08T07:25:38;2.33;;;1.20;;
14472;SDS011;7322;50.872;4.386;2023-08-08T07:28:05;2.90;;;1.30;;
14472;SDS011;7322;50.872;4.386;2023-08-08T07:30:34;1.92;;;1.30;;
14472;SDS011;7322;50.872;4.386;2023-08-08T07:33:02;1.73;;;1.13;;
14472;SDS011;7322;50.872;4.386;2023-08-08T07:35:29;3.70;;;1.38;;
14472;SDS011;7322;50.872;4.386;2023-08-08T07:37:55;2.15;;;1.40;;
14472;SDS011;7322;50.872;4.386;2023-08-08T07:40:22;2.22;;;1.10;;
14472;SDS011;7322;50.872;4.386;2023-08-08T07:42:51;3.53;;;1.40;;
14472;SDS011;7322;50.872;4.386;2023-08-08T07:45:18;2.00;;;1.48;;
14472;SDS011;7322;50.872;4.386;2023-08-08T07:47:45;2.33;;;1.35;;
14472;SDS011;7322;50.872;4.386;2023-08-08T07:50:12;1.95;;;1.25;;
14472;SDS011;7322;50.872;4.386;2023-08-08T07:52:39;3.35;;;1.70;;
14472;SDS011;7322;50.872;4.386;2023-08-08T07:55:07;4.15;;;1.58;;
14472;SDS011;7322;50.872;4.386;2023-08-08T07:57:34;3.00;;;1.58;;
14472;SDS011;7322;50.872;4.386;2023-08-08T08:00:03;2.13;;;1.67;;
14472;SDS011;7322;50.872;4.386;2023-08-08T08:02:36;2.17;;;1.50;;
14472;SDS011;7322;50.872;4.386;2023-08-08T08:05:03;1.95;;;1.30;;
14472;SDS011;7322;50.872;4.386;2023-08-08T08:07:33;3.15;;;1.50;;
14472;SDS011;7322;50.872;4.386;2023-08-08T08:10:00;2.70;;;1.90;;
14472;SDS011;7322;50.872;4.386;2023-08-08T08:12:27;1.85;;;1.70;;
14472;SDS011;7322;50.872;4.386;2023-08-08T08:14:55;2.58;;;1.40;;
14472;SDS011;7322;50.872;4.386;2023-08-08T08:17:24;2.25;;;1.38;;
14472;SDS011;7322;50.872;4.386;2023-08-08T08:19:53;3.22;;;1.63;;
14472;SDS011;7322;50.872;4.386;2023-08-08T08:22:20;2.85;;;1.40;;
14472;SDS011;7322;50.872;4.386;2023-08-08T08:24:47;3.53;;;1.60;;
14472;SDS011;7322;50.872;4.386;2023-08-08T08:27:17;4.05;;;1.63;;
14472;SDS011;7322;50.872;4.386;2023-08-08T08:29:44;2.58;;;1.73;;
14472;SDS011;7322;50.872;4.386;2023-08-08T08:32:11;2.15;;;1.80;;
14472;SDS011;7322;50.872;4.386;2023-08-08T08:34:39;3.47;;;1.97;;
14472;SDS011;7322;50.872;4.386;2023-08-08T08:37:06;2.78;;;1.60;;
14472;SDS011;7322;50.872;4.386;2023-08-08T08:39:34;4.25;;;1.90;;
14472;SDS011;7322;50.872;4.386;2023-08-08T08:42:01;3.03;;;1.73;;
14472;SDS011;7322;50.872;4.386;2023-08-08T08:44:30;2.60;;;1.70;;
14472;SDS011;7322;50.872;4.386;2023-08-08T08:46:58;3.15;;;1.80;;
14472;SDS011;7322;50.872;4.386;2023-08-08T08:49:28;2.72;;;1.50;;
14472;SDS011;7322;50.872;4.386;2023-08-08T08:51:58;3.38;;;1.92;;
14472;SDS011;7322;50.872;4.386;2023-08-08T08:54:27;2.47;;;1.52;;
14472;SDS011;7322;50.872;4.386;2023-08-08T08:56:56;3.15;;;2.17;;
14472;SDS011;7322;50.872;4.386;2023-08-08T08:59:23;2.60;;;1.70;;
14472;SDS011;7322;50.872;4.386;2023-08-08T09:01:51;3.42;;;1.90;;
14472;SDS011;7322;50.872;4.386;2023-08-08T09:04:18;2.92;;;2.03;;
14472;SDS011;7322;50.872;4.386;2023-08-08T09:06:47;2.53;;;1.85;;
14472;SDS011;7322;50.872;4.386;2023-08-08T09:09:16;2.88;;;2.03;;
14472;SDS011;7322;50.872;4.386;2023-08-08T09:11:47;2.58;;;1.98;;
14472;SDS011;7322;50.872;4.386;2023-08-08T09:14:16;2.92;;;2.00;;
14472;SDS011;7322;50.872;4.386;2023-08-08T09:16:45;2.08;;;1.80;;
14472;SDS011;7322;50.872;4.386;2023-08-08T09:19:13;2.65;;;1.73;;
14472;SDS011;7322;50.872;4.386;2023-08-08T09:21:40;2.88;;;1.80;;
14472;SDS011;7322;50.872;4.386;2023-08-08T09:24:07;3.63;;;1.83;;
14472;SDS011;7322;50.872;4.386;2023-08-08T09:26:36;2.53;;;1.80;;
14472;SDS011;7322;50.872;4.386;2023-08-08T09:29:02;2.80;;;1.90;;
14472;SDS011;7322;50.872;4.386;2023-08-08T09:31:30;3.28;;;1.98;;
14472;SDS011;7322;50.872;4.386;2023-08-08T09:33:57;3.97;;;2.00;;
14472;SDS011;7322;50.872;4.386;2023-08-08T09:36:25;3.65;;;2.25;;
14472;SDS011;7322;50.872;4.386;2023-08-08T09:38:53;3.13;;;2.20;;
14472;SDS011;7322;50.872;4.386;2023-08-08T09:41:20;3.42;;;1.77;;
14472;SDS011;7322;50.872;4.386;2023-08-08T09:43:52;2.60;;;1.90;;
14472;SDS011;7322;50.872;4.386;2023-08-08T09:46:19;3.13;;;2.10;;
14472;SDS011;7322;50.872;4.386;2023-08-08T09:48:47;2.65;;;1.95;;
14472;SDS011;7322;50.872;4.386;2023-08-08T09:51:15;3.10;;;2.00;;
14472;SDS011;7322;50.872;4.386;2023-08-08T09:53:42;3.17;;;1.92;;
14472;SDS011;7322;50.872;4.386;2023-08-08T09:56:10;2.72;;;2.00;;
14472;SDS011;7322;50.872;4.386;2023-08-08T09:58:38;2.22;;;1.65;;
14472;SDS011;7322;50.872;4.386;2023-08-08T10:01:07;3.53;;;2.08;;
14472;SDS011;7322;50.872;4.386;2023-08-08T10:03:37;2.83;;;2.10;;
14472;SDS011;7322;50.872;4.386;2023-08-08T10:06:08;3.60;;;2.10;;
14472;SDS011;7322;50.872;4.386;2023-08-08T10:08:35;3.03;;;1.92;;
14472;SDS011;7322;50.872;4.386;2023-08-08T10:11:02;2.80;;;1.98;;
14472;SDS011;7322;50.872;4.386;2023-08-08T10:13:32;2.88;;;1.85;;
14472;SDS011;7322;50.872;4.386;2023-08-08T10:16:04;3.88;;;2.10;;
14472;SDS011;7322;50.872;4.386;2023-08-08T10:18:35;4.10;;;2.30;;
14472;SDS011;7322;50.872;4.386;2023-08-08T10:21:03;3.08;;;2.15;;
14472;SDS011;7322;50.872;4.386;2023-08-08T10:23:35;3.47;;;1.88;;
14472;SDS011;7322;50.872;4.386;2023-08-08T10:26:03;3.63;;;2.13;;
14472;SDS011;7322;50.872;4.386;2023-08-08T10:28:31;2.47;;;2.10;;
14472;SDS011;7322;50.872;4.386;2023-08-08T10:31:00;3.90;;;2.30;;
14472;SDS011;7322;50.872;4.386;2023-08-08T10:33:40;3.70;;;1.88;;
14472;SDS011;7322;50.872;4.386;2023-08-08T10:36:09;2.63;;;1.80;;
14472;SDS011;7322;50.872;4.386;2023-08-08T10:38:39;2.97;;;1.85;;
14472;SDS011;7322;50.872;4.386;2023-08-08T10:41:08;3.55;;;1.83;;
14472;SDS011;7322;50.872;4.386;2023-08-08T10:43:38;2.58;;;1.90;;
14472;SDS011;7322;50.872;4.386;2023-08-08T10:46:12;2.40;;;1.95;;
14472;SDS011;7322;50.872;4.386;2023-08-08T10:48:50;3.15;;;2.00;;
14472;SDS011;7322;50.872;4.386;2023-08-08T10:51:17;2.70;;;1.85;;
14472;SDS011;7322;50.872;4.386;2023-08-08T10:53:44;3.05;;;1.73;;
14472;SDS011;7322;50.872;4.386;2023-08-08T10:56:12;2.17;;;1.80;;
14472;SDS011;7322;50.872;4.386;2023-08-08T10:58:41;3.60;;;2.08;;
14472;SDS011;7322;50.872;4.386;2023-08-08T11:01:13;2.45;;;1.67;;
14472;SDS011;7322;50.872;4.386;2023-08-08T11:03:42;3.33;;;2.30;;
14472;SDS011;7322;50.872;4.386;2023-08-08T11:06:11;3.28;;;2.10;;
14472;SDS011;7322;50.872;4.386;2023-08-08T11:08:38;2.92;;;1.80;;
14472;SDS011;7322;50.872;4.386;2023-08-08T11:11:05;3.13;;;1.73;;
14472;SDS011;7322;50.872;4.386;2023-08-08T11:13:32;2.13;;;1.88;;
14472;SDS011;7322;50.872;4.386;2023-08-08T11:15:59;3.10;;;2.20;;
14472;SDS011;7322;50.872;4.386;2023-08-08T11:18:27;1.77;;;1.67;;
14472;SDS011;7322;50.872;4.386;2023-08-08T11:20:55;3.67;;;1.88;;
14472;SDS011;7322;50.872;4.386;2023-08-08T11:23:23;2.22;;;1.80;;
14472;SDS011;7322;50.872;4.386;2023-08-08T11:25:50;2.42;;;1.77;;
14472;SDS011;7322;50.872;4.386;2023-08-08T11:28:17;2.13;;;1.67;;
14472;SDS011;7322;50.872;4.386;2023-08-08T11:30:44;3.30;;;1.80;;
14472;SDS011;7322;50.872;4.386;2023-08-08T11:33:12;3.15;;;2.00;;
14472;SDS011;7322;50.872;4.386;2023-08-08T11:35:43;2.45;;;1.77;;
14472;SDS011;7322;50.872;4.386;2023-08-08T11:38:13;2.63;;;1.70;;
14472;SDS011;7322;50.872;4.386;2023-08-08T11:40:42;4.30;;;1.88;;
14472;SDS011;7322;50.872;4.386;2023-08-08T11:43:10;2.20;;;1.77;;
14472;SDS011;7322;50.872;4.386;2023-08-08T11:45:38;2.90;;;1.80;;
14472;SDS011;7322;50.872;4.386;2023-08-08T11:48:07;2.38;;;1.80;;
14472;SDS011;7322;50.872;4.386;2023-08-08T11:50:36;3.13;;;2.00;;
14472;SDS011;7322;50.872;4.386;2023-08-08T11:53:05;2.65;;;2.00;;
14472;SDS011;7322;50.872;4.386;2023-08-08T11:55:36;2.95;;;1.85;;
14472;SDS011;7322;50.872;4.386;2023-08-08T11:58:05;2.22;;;1.70;;
14472;SDS011;7322;50.872;4.386;2023-08-08T12:00:32;1.98;;;1.58;;
14472;SDS011;7322;50.872;4.386;2023-08-08T12:03:00;3.10;;;1.90;;
14472;SDS011;7322;50.872;4.386;2023-08-08T12:05:29;2.60;;;1.75;;
14472;SDS011;7322;50.872;4.386;2023-08-08T12:08:02;2.40;;;1.83;;
14472;SDS011;7322;50.872;4.386;2023-08-08T12:10:31;2.50;;;1.67;;
14472;SDS011;7322;50.872;4.386;2023-08-08T12:12:58;2.08;;;1.55;;
14472;SDS011;7322;50.872;4.386;2023-08-08T12:15:29;2.58;;;1.90;;
14472;SDS011;7322;50.872;4.386;2023-08-08T12:18:00;3.05;;;1.80;;
14472;SDS011;7322;50.872;4.386;2023-08-08T12:20:28;2.10;;;1.60;;
14472;SDS011;7322;50.872;4.386;2023-08-08T12:22:56;1.92;;;1.70;;
14472;SDS011;7322;50.872;4.386;2023-08-08T12:25:23;2.35;;;1.58;;
14472;SDS011;7322;50.872;4.386;2023-08-08T12:27:50;3.03;;;1.50;;
14472;SDS011;7322;50.872;4.386;2023-08-08T12:30:17;3.00;;;1.92;;
14472;SDS011;7322;50.872;4.386;2023-08-08T12:32:45;3.03;;;2.10;;
14472;SDS011;7322;50.872;4.386;2023-08-08T12:35:12;2.42;;;1.88;;
14472;SDS011;7322;50.872;4.386;2023-08-08T12:37:41;2.22;;;1.77;;
14472;SDS011;7322;50.872;4.386;2023-08-08T12:40:08;2.25;;;1.65;;
14472;SDS011;7322;50.872;4.386;2023-08-08T12:42:36;2.25;;;1.60;;
14472;SDS011;7322;50.872;4.386;2023-08-08T12:45:03;1.50;;;1.40;;
14472;SDS011;7322;50.872;4.386;2023-08-08T12:47:31;2.33;;;1.60;;
14472;SDS011;7322;50.872;4.386;2023-08-08T12:50:03;2.22;;;1.70;;
14472;SDS011;7322;50.872;4.386;2023-08-08T12:52:30;2.03;;;1.63;;
14472;SDS011;7322;50.872;4.386;2023-08-08T12:54:57;1.80;;;1.60;;
14472;SDS011;7322;50.872;4.386;2023-08-08T12:57:24;2.25;;;1.58;;
14472;SDS011;7322;50.872;4.386;2023-08-08T12:59:52;1.73;;;1.50;;
14472;SDS011;7322;50.872;4.386;2023-08-08T13:02:19;1.50;;;1.40;;
14472;SDS011;7322;50.872;4.386;2023-08-08T13:04:46;1.58;;;1.15;;
14472;SDS011;7322;50.872;4.386;2023-08-08T13:07:15;2.00;;;1.75;;
14472;SDS011;7322;50.872;4.386;2023-08-08T13:09:42;2.35;;;1.60;;
14472;SDS011;7322;50.872;4.386;2023-08-08T13:12:09;1.55;;;1.45;;
14472;SDS011;7322;50.872;4.386;2023-08-08T13:14:36;1.90;;;1.50;;
14472;SDS011;7322;50.872;4.386;2023-08-08T13:17:03;1.88;;;1.58;;
14472;SDS011;7322;50.872;4.386;2023-08-08T13:19:30;2.40;;;1.70;;
14472;SDS011;7322;50.872;4.386;2023-08-08T13:21:57;1.58;;;1.42;;
14472;SDS011;7322;50.872;4.386;2023-08-08T13:24:25;1.77;;;1.40;;
14472;SDS011;7322;50.872;4.386;2023-08-08T13:26:52;3.55;;;1.60;;
14472;SDS011;7322;50.872;4.386;2023-08-08T13:29:19;2.45;;;1.63;;
14472;SDS011;7322;50.872;4.386;2023-08-08T13:31:46;1.40;;;1.30;;
14472;SDS011;7322;50.872;4.386;2023-08-08T13:34:13;3.20;;;1.60;;
14472;SDS011;7322;50.872;4.386;2023-08-08T13:36:40;2.10;;;1.50;;
14472;SDS011;7322;50.872;4.386;2023-08-08T13:39:07;1.50;;;1.40;;
14472;SDS011;7322;50.872;4.386;2023-08-08T13:41:36;1.50;;;1.40;;
14472;SDS011;7322;50.872;4.386;2023-08-08T13:44:03;1.70;;;1.40;;
14472;SDS011;7322;50.872;4.386;2023-08-08T13:46:31;1.75;;;1.40;;
14472;SDS011;7322;50.872;4.386;2023-08-08T13:48:57;1.70;;;1.20;;
14472;SDS011;7322;50.872;4.386;2023-08-08T13:51:24;1.55;;;1.35;;
14472;SDS011;7322;50.872;4.386;2023-08-08T13:53:51;1.42;;;1.30;;
14472;SDS011;7322;50.872;4.386;2023-08-08T13:56:19;2.00;;;1.50;;
14472;SDS011;7322;50.872;4.386;2023-08-08T13:58:47;1.90;;;1.33;;
14472;SDS011;7322;50.872;4.386;2023-08-08T14:01:14;2.03;;;1.60;;
14472;SDS011;7322;50.872;4.386;2023-08-08T14:03:41;1.45;;;1.30;;
14472;SDS011;7322;50.872;4.386;2023-08-08T14:06:09;2.17;;;1.52;;
14472;SDS011;7322;50.872;4.386;2023-08-08T14:08:36;2.08;;;1.40;;
14472;SDS011;7322;50.872;4.386;2023-08-08T14:11:03;2.08;;;1.40;;
14472;SDS011;7322;50.872;4.386;2023-08-08T14:13:30;1.60;;;1.33;;
14472;SDS011;7322;50.872;4.386;2023-08-08T14:16:00;2.10;;;1.33;;
14472;SDS011;7322;50.872;4.386;2023-08-08T14:18:27;1.40;;;1.30;;
14472;SDS011;7322;50.872;4.386;2023-08-08T14:20:54;2.53;;;1.30;;
14472;SDS011;7322;50.872;4.386;2023-08-08T14:23:21;1.90;;;1.40;;
14472;SDS011;7322;50.872;4.386;2023-08-08T14:25:48;3.22;;;1.52;;
14472;SDS011;7322;50.872;4.386;2023-08-08T14:28:15;1.30;;;1.20;;
14472;SDS011;7322;50.872;4.386;2023-08-08T14:30:42;1.77;;;1.23;;
14472;SDS011;7322;50.872;4.386;2023-08-08T14:33:13;2.60;;;1.38;;
14472;SDS011;7322;50.872;4.386;2023-08-08T14:35:41;1.73;;;1.30;;
14472;SDS011;7322;50.872;4.386;2023-08-08T14:38:08;1.35;;;1.20;;
14472;SDS011;7322;50.872;4.386;2023-08-08T14:40:35;1.40;;;1.30;;
14472;SDS011;7322;50.872;4.386;2023-08-08T14:43:02;1.88;;;1.55;;
14472;SDS011;7322;50.872;4.386;2023-08-08T14:45:35;2.10;;;1.40;;
14472;SDS011;7322;50.872;4.386;2023-08-08T14:48:03;1.77;;;1.45;;
14472;SDS011;7322;50.872;4.386;2023-08-08T14:50:31;1.20;;;1.02;;
14472;SDS011;7322;50.872;4.386;2023-08-08T14:52:59;1.60;;;1.30;;
14472;SDS011;7322;50.872;4.386;2023-08-08T14:55:25;1.55;;;1.20;;
14472;SDS011;7322;50.872;4.386;2023-08-08T14:57:52;1.30;;;1.20;;
14472;SDS011;7322;50.872;4.386;2023-08-08T15:00:19;1.90;;;1.33;;
14472;SDS011;7322;50.872;4.386;2023-08-08T15:02:47;1.27;;;1.17;;